Etusivu
METAR-TAF:

METAR-TAF

Lentoasemat :

Hannoverin lentoasema

Hannover, Saksa

Leveyspiiri: 52-28N, Pituuspiiri: 009-41E, korkeus merenpinnasta: 56 m

Tämänhetkinen sää

Tämä raportti tehtiin 20 minuuttia sitten, kello 03.20 UTC
Tuuli 8 kn lännestä
Lämpötila 2°C
Kosteus 93%
Ilmanpaine 1023 hPa
Näkyvyys 10 km tai enemmän
Muutamia pilviä 3000 ft:n korkeudessa

METAR: EDDV 190320Z 27008KT 9999 FEW030 02/01 Q1023

Aika: 04:40 (03:40 UTC)

Sääennuste

Tämä raportti tehtiin 4 tuntia ja 40 minuuttia sitten, kello 23.00 UTC
Ennuste voimassa 19. päivästä klo 00 UTC - 19. päivään klo 24 UTC
Tuuli 9 kn lännestä
Näkyvyys 10 km tai enemmän
Hajanaisia pilviä 3000 ft:n korkeudessa
Todennäköisyys 30% :
Ajoittain
19. päivästä klo 05 UTC - 19. päivään klo 08 UTC
Hajonneita pilviä 1300 ft:n korkeudessa
Tulossa
19. päivästä klo 16 UTC - 19. päivään klo 18 UTC
Tuuli 4 kn lännestä/lounaasta

TAF: EDDV 182300Z 1900/1924 27009KT 9999 SCT030 PROB30 TEMPO 1905/1908 BKN013 BECMG 1916/1918 24004KT

Säähavainnot ja -ennusteet yli 4000 lentoasemalta (METAR- ja TAF-raportit).

Käytössä olevat sääasemat on merkitty karttaan keltaisilla ja punaisilla pisteillä.

Aseta hiiri pisteen päälle nähdäksesi sääaseman nimen.

Klikkaa sitten nähdäksesi säähavainnot ja -ennusteet.

Kartan vaihtaminen: klikkaa mustalla rastilla varustettuja vihreitä pisteitä, niin voit zoomata sisään; viivalla varustettua vihreää pistettä, niin voit zoomata ulos tai vihreitä nuolia, niin pääset viereisille kartoille.


METAR-TAF: